Airfield :
LOGIN :

Register | Disclaimer

   EN    FR    IT 

 










Legend :    VFR   Marginal VFR   IFR   Intensive IFR   Very Intensive IFR
Visi :
Ceiling :
>= 8 km
>= 3000ft
5 to 8 km
1000 to 3000 ft
1500m to 5 km
500 to 1000 ft
800 to 1500m
200 to 500 ft
< 800m
< 200 ft
Symbols :   Thunderstorms  Fog  Heavy snow  Heavy precipitations  Wind > 20 kt
SIGMETs :     Misc.  Thunderstorms  Icing  Turbulence  Mountain Waves  Volcanic Ashes






- Airport Elevation : 1411 ft
- IATA code : GVA


LSGG - Genève Cointrin

CURRENT METAR :
  • 190520Z AUTO VRB01KT CAVOK 18/16 Q1021 NOSIG

EXPIRED METARs :
  • 190450Z AUTO VRB01KT CAVOK 17/15 Q1021 NOSIG
  • 190420Z AUTO VRB01KT CAVOK 16/15 Q1021 NOSIG
  • 190350Z AUTO VRB02KT CAVOK 16/15 Q1021 NOSIG
  • 190320Z AUTO VRB01KT 9999 4100NE NCD 16/15 Q1021 NOSIG
  • 190250Z AUTO VRB01KT CAVOK 17/15 Q1021 NOSIG
  • 190220Z AUTO 33002KT CAVOK 17/15 Q1020 NOSIG
  • 190150Z AUTO VRB01KT CAVOK 17/16 Q1021 NOSIG
  • 190120Z AUTO VRB01KT CAVOK 18/16 Q1021 NOSIG
  • 190050Z AUTO VRB01KT CAVOK 18/16 Q1021 NOSIG

TAF TAF LSGG
Valid from the 19 at 03:00 until the 20 at 09:00 UTC


190225Z 1903/2009 VRB02KT CAVOK TX32/1915Z TN16/1904Z TN17/2004Z
BECMG 1911/1914 23007KT
PROB30
TEMPO 1914/1918 9999 FEW080CB
BECMG 1917/1920 VRB02KT
ATIS : +41 22 417 40 81



MET'MAP, your aeronautical weather chart ! - Copyright ORBIFLY December 2007 - Disclaimer

ORBIFLY MET'MAP TEAM :

Programming & Development : Alexandra Zaïnal
Original concept : Baudouin d'Aumeries
Technical & hardware support : Manuel Goepfert
Assistance : Marc-Olivier Méhu




SOURCES & CREDITS :

   NOAA